Terminal Aerodrome Forecast
Issued by NWS

Home | Current Version | Previous Version | Text Only | Print | Product List | Glossary On
Versions: 1 2 3 4 5 6 7 8 9 10 11 12 13 14 15 16 17 18 19 20 21 22 23 24 25 26 27 28
000
FTUS43 KGRB 231724
TAFAUW
TAF
KAUW 231724Z 2318/2418 24007KT P6SM SKC
     FM240300 26003KT P6SM SCT250
     FM240900 29003KT P6SM BKN200
     FM241200 35003KT P6SM BKN140
     FM241500 04007KT P6SM SCT025 BKN090
      TEMPO 2415/2418 BKN025=

USA.gov is the U.S. government's official web portal to all federal, state and local government web resources and services.